sensor_id;sensor_type;location;lat;lon;timestamp;pressure;altitude;pressure_sealevel;temperature;humidity
14790;BME280;7486;51.010;10.366;2022-08-19T00:01:36;97878.69;;;17.28;69.82
14790;BME280;7486;51.010;10.366;2022-08-19T00:04:07;97808.09;;;16.65;71.17
14790;BME280;7486;51.010;10.366;2022-08-19T00:06:35;97821.09;;;16.89;70.56
14790;BME280;7486;51.010;10.366;2022-08-19T00:09:05;97821.09;;;16.84;70.63
14790;BME280;7486;51.010;10.366;2022-08-19T00:11:33;97836.19;;;16.95;71.21
14790;BME280;7486;51.010;10.366;2022-08-19T00:13:59;97873.16;;;17.03;71.58
14790;BME280;7486;51.010;10.366;2022-08-19T00:16:27;97875.69;;;16.88;72.19
14790;BME280;7486;51.010;10.366;2022-08-19T00:18:54;97876.19;;;16.85;71.76
14790;BME280;7486;51.010;10.366;2022-08-19T00:21:22;97876.50;;;16.88;71.59
14790;BME280;7486;51.010;10.366;2022-08-19T00:23:49;97824.03;;;16.55;71.52
14790;BME280;7486;51.010;10.366;2022-08-19T00:26:16;97811.13;;;16.47;72.01
14790;BME280;7486;51.010;10.366;2022-08-19T00:28:42;97827.81;;;16.59;72.04
14790;BME280;7486;51.010;10.366;2022-08-19T00:31:10;97823.41;;;16.75;71.56
14790;BME280;7486;51.010;10.366;2022-08-19T00:33:36;97781.31;;;16.60;70.93
14790;BME280;7486;51.010;10.366;2022-08-19T00:36:06;97774.13;;;16.61;70.62
14790;BME280;7486;51.010;10.366;2022-08-19T00:38:34;97784.88;;;16.71;70.85
14790;BME280;7486;51.010;10.366;2022-08-19T00:41:07;97791.06;;;16.77;70.51
14790;BME280;7486;51.010;10.366;2022-08-19T00:43:34;97821.09;;;16.89;70.41
14790;BME280;7486;51.010;10.366;2022-08-19T00:46:01;97836.72;;;16.97;70.80
14790;BME280;7486;51.010;10.366;2022-08-19T00:48:28;97799.63;;;16.79;70.17
14790;BME280;7486;51.010;10.366;2022-08-19T00:50:55;97796.38;;;16.71;71.13
14790;BME280;7486;51.010;10.366;2022-08-19T00:53:24;97844.53;;;17.03;71.82
14790;BME280;7486;51.010;10.366;2022-08-19T00:55:55;97783.72;;;16.62;71.42
14790;BME280;7486;51.010;10.366;2022-08-19T00:58:26;97749.41;;;16.49;71.07
14790;BME280;7486;51.010;10.366;2022-08-19T01:00:55;97784.03;;;16.65;71.33
14790;BME280;7486;51.010;10.366;2022-08-19T01:03:22;97761.50;;;16.56;71.45
14790;BME280;7486;51.010;10.366;2022-08-19T01:05:50;97836.56;;;17.08;70.95
14790;BME280;7486;51.010;10.366;2022-08-19T01:08:19;97806.66;;;16.85;70.92
14790;BME280;7486;51.010;10.366;2022-08-19T01:10:55;97792.34;;;16.69;71.81
14790;BME280;7486;51.010;10.366;2022-08-19T01:13:25;97810.09;;;16.85;71.72
14790;BME280;7486;51.010;10.366;2022-08-19T01:16:05;97803.50;;;16.93;71.61
14790;BME280;7486;51.010;10.366;2022-08-19T01:18:36;97770.13;;;16.68;71.99
14790;BME280;7486;51.010;10.366;2022-08-19T01:21:12;97812.09;;;16.95;71.51
14790;BME280;7486;51.010;10.366;2022-08-19T01:23:43;97848.84;;;17.09;71.84
14790;BME280;7486;51.010;10.366;2022-08-19T01:26:17;97848.81;;;17.04;72.26
14790;BME280;7486;51.010;10.366;2022-08-19T01:28:46;97832.50;;;17.06;71.95
14790;BME280;7486;51.010;10.366;2022-08-19T01:31:17;97746.25;;;16.57;71.98
14790;BME280;7486;51.010;10.366;2022-08-19T01:33:54;97826.13;;;17.12;72.25
14790;BME280;7486;51.010;10.366;2022-08-19T01:36:28;97766.28;;;16.54;73.39
14790;BME280;7486;51.010;10.366;2022-08-19T01:38:56;97808.88;;;16.93;73.37
14790;BME280;7486;51.010;10.366;2022-08-19T01:41:22;97789.50;;;16.81;73.44
14790;BME280;7486;51.010;10.366;2022-08-19T01:43:50;97760.53;;;16.67;73.24
14790;BME280;7486;51.010;10.366;2022-08-19T01:46:37;97822.91;;;17.10;73.11
14790;BME280;7486;51.010;10.366;2022-08-19T01:49:04;97805.19;;;17.04;73.10
14790;BME280;7486;51.010;10.366;2022-08-19T01:51:31;97770.22;;;16.79;73.47
14790;BME280;7486;51.010;10.366;2022-08-19T01:54:09;97795.50;;;16.93;73.47
14790;BME280;7486;51.010;10.366;2022-08-19T01:56:37;97762.13;;;16.68;73.64
14790;BME280;7486;51.010;10.366;2022-08-19T01:59:09;97810.03;;;17.07;73.55
14790;BME280;7486;51.010;10.366;2022-08-19T02:01:37;97807.69;;;17.15;72.98
14790;BME280;7486;51.010;10.366;2022-08-19T02:04:03;97761.22;;;16.90;72.51
14790;BME280;7486;51.010;10.366;2022-08-19T02:06:30;97782.19;;;17.03;72.69
14790;BME280;7486;51.010;10.366;2022-08-19T02:08:57;97765.00;;;16.94;72.58
14790;BME280;7486;51.010;10.366;2022-08-19T02:11:27;97722.50;;;16.60;74.09
14790;BME280;7486;51.010;10.366;2022-08-19T02:13:55;97752.75;;;16.66;75.29
14790;BME280;7486;51.010;10.366;2022-08-19T02:16:22;97739.66;;;16.69;74.31
14790;BME280;7486;51.010;10.366;2022-08-19T02:18:49;97731.41;;;16.71;74.11
14790;BME280;7486;51.010;10.366;2022-08-19T02:21:21;97808.47;;;17.16;74.33
14790;BME280;7486;51.010;10.366;2022-08-19T02:23:49;97809.53;;;17.10;74.99
14790;BME280;7486;51.010;10.366;2022-08-19T02:26:17;97805.81;;;17.16;74.46
14790;BME280;7486;51.010;10.366;2022-08-19T02:28:44;97806.13;;;17.24;74.31
14790;BME280;7486;51.010;10.366;2022-08-19T02:31:17;97810.44;;;17.31;73.94
14790;BME280;7486;51.010;10.366;2022-08-19T02:33:45;97755.41;;;16.98;73.56
14790;BME280;7486;51.010;10.366;2022-08-19T02:36:13;97742.56;;;16.95;73.56
14790;BME280;7486;51.010;10.366;2022-08-19T02:38:41;97821.22;;;17.41;73.48
14790;BME280;7486;51.010;10.366;2022-08-19T02:41:19;97812.13;;;17.42;73.43
14790;BME280;7486;51.010;10.366;2022-08-19T02:43:47;97805.44;;;17.39;73.59
14790;BME280;7486;51.010;10.366;2022-08-19T02:46:35;97801.94;;;17.39;73.87
14790;BME280;7486;51.010;10.366;2022-08-19T02:49:06;97762.41;;;17.04;73.80
14790;BME280;7486;51.010;10.366;2022-08-19T02:51:37;97766.66;;;17.00;73.43
14790;BME280;7486;51.010;10.366;2022-08-19T02:54:05;97767.44;;;17.00;73.13
14790;BME280;7486;51.010;10.366;2022-08-19T02:56:35;97824.69;;;17.36;73.12
14790;BME280;7486;51.010;10.366;2022-08-19T02:59:02;97796.47;;;17.18;73.46
14790;BME280;7486;51.010;10.366;2022-08-19T03:01:31;97776.53;;;16.99;74.11
14790;BME280;7486;51.010;10.366;2022-08-19T03:04:01;97824.66;;;17.31;73.93
14790;BME280;7486;51.010;10.366;2022-08-19T03:06:29;97823.28;;;17.29;73.71
14790;BME280;7486;51.010;10.366;2022-08-19T03:08:57;97830.25;;;17.30;73.61
14790;BME280;7486;51.010;10.366;2022-08-19T03:11:26;97830.53;;;17.28;73.59
14790;BME280;7486;51.010;10.366;2022-08-19T03:13:54;97796.13;;;17.05;73.48
14790;BME280;7486;51.010;10.366;2022-08-19T03:16:22;97760.06;;;16.81;73.20
14790;BME280;7486;51.010;10.366;2022-08-19T03:18:50;97769.75;;;16.87;73.15
14790;BME280;7486;51.010;10.366;2022-08-19T03:21:20;97835.59;;;17.30;73.21
14790;BME280;7486;51.010;10.366;2022-08-19T03:23:47;97824.59;;;17.21;73.23
14790;BME280;7486;51.010;10.366;2022-08-19T03:26:14;97798.00;;;17.09;73.46
14790;BME280;7486;51.010;10.366;2022-08-19T03:28:44;97789.91;;;16.99;73.29
14790;BME280;7486;51.010;10.366;2022-08-19T03:31:22;97796.94;;;16.79;74.94
14790;BME280;7486;51.010;10.366;2022-08-19T03:34:11;97836.72;;;16.97;75.88
14790;BME280;7486;51.010;10.366;2022-08-19T03:36:39;97836.50;;;17.03;75.68
14790;BME280;7486;51.010;10.366;2022-08-19T03:39:06;97802.13;;;16.53;77.77
14790;BME280;7486;51.010;10.366;2022-08-19T03:41:36;97847.84;;;16.89;77.27
14790;BME280;7486;51.010;10.366;2022-08-19T03:44:16;97845.25;;;16.94;77.44
14790;BME280;7486;51.010;10.366;2022-08-19T03:46:53;97783.53;;;16.37;78.53
14790;BME280;7486;51.010;10.366;2022-08-19T03:49:22;97787.63;;;16.49;78.62
14790;BME280;7486;51.010;10.366;2022-08-19T03:51:55;97844.22;;;16.95;78.13
14790;BME280;7486;51.010;10.366;2022-08-19T03:54:23;97830.94;;;16.78;78.40
14790;BME280;7486;51.010;10.366;2022-08-19T03:56:52;97823.78;;;16.89;77.54
14790;BME280;7486;51.010;10.366;2022-08-19T03:59:29;97839.34;;;16.60;79.97
14790;BME280;7486;51.010;10.366;2022-08-19T04:01:59;97808.00;;;16.55;79.18
14790;BME280;7486;51.010;10.366;2022-08-19T04:04:26;97852.75;;;16.92;78.16
14790;BME280;7486;51.010;10.366;2022-08-19T04:06:55;97778.50;;;16.45;77.62
14790;BME280;7486;51.010;10.366;2022-08-19T04:09:22;97788.97;;;16.47;77.02
14790;BME280;7486;51.010;10.366;2022-08-19T04:11:52;97871.91;;;16.84;78.19
14790;BME280;7486;51.010;10.366;2022-08-19T04:14:21;97812.50;;;16.50;77.76
14790;BME280;7486;51.010;10.366;2022-08-19T04:17:13;97823.03;;;16.61;77.00
14790;BME280;7486;51.010;10.366;2022-08-19T04:19:40;97803.25;;;16.62;76.81
14790;BME280;7486;51.010;10.366;2022-08-19T04:22:07;97809.72;;;16.66;76.76
14790;BME280;7486;51.010;10.366;2022-08-19T04:24:34;97841.03;;;16.71;77.36
14790;BME280;7486;51.010;10.366;2022-08-19T04:27:01;97802.16;;;16.58;77.21
14790;BME280;7486;51.010;10.366;2022-08-19T04:29:28;97812.84;;;16.58;76.83
14790;BME280;7486;51.010;10.366;2022-08-19T04:31:56;97875.38;;;16.84;78.11
14790;BME280;7486;51.010;10.366;2022-08-19T04:34:24;97874.00;;;16.82;78.92
14790;BME280;7486;51.010;10.366;2022-08-19T04:36:53;97880.22;;;16.87;78.55
14790;BME280;7486;51.010;10.366;2022-08-19T04:39:26;97837.97;;;16.57;78.66
14790;BME280;7486;51.010;10.366;2022-08-19T04:41:54;97832.63;;;16.57;78.64
14790;BME280;7486;51.010;10.366;2022-08-19T04:44:20;97819.66;;;16.44;78.59
14790;BME280;7486;51.010;10.366;2022-08-19T04:46:48;97813.78;;;16.42;78.07
14790;BME280;7486;51.010;10.366;2022-08-19T04:49:21;97869.75;;;16.81;78.46
14790;BME280;7486;51.010;10.366;2022-08-19T04:51:50;97828.84;;;16.53;77.73
14790;BME280;7486;51.010;10.366;2022-08-19T04:54:18;97884.47;;;16.83;78.01
14790;BME280;7486;51.010;10.366;2022-08-19T04:57:09;97877.56;;;16.60;78.53
14790;BME280;7486;51.010;10.366;2022-08-19T04:59:38;97881.25;;;16.81;77.44
14790;BME280;7486;51.010;10.366;2022-08-19T05:02:07;97872.25;;;16.92;77.22
14790;BME280;7486;51.010;10.366;2022-08-19T05:04:34;97810.22;;;16.63;76.31
14790;BME280;7486;51.010;10.366;2022-08-19T05:07:01;97821.59;;;16.81;75.70
14790;BME280;7486;51.010;10.366;2022-08-19T05:09:29;97822.03;;;16.67;75.85
14790;BME280;7486;51.010;10.366;2022-08-19T05:12:16;97852.75;;;16.92;75.43
14790;BME280;7486;51.010;10.366;2022-08-19T05:14:43;97869.94;;;17.06;75.23
14790;BME280;7486;51.010;10.366;2022-08-19T05:17:10;97831.63;;;16.95;74.79
14790;BME280;7486;51.010;10.366;2022-08-19T05:19:54;97837.59;;;17.07;74.18
14790;BME280;7486;51.010;10.366;2022-08-19T05:22:21;97809.44;;;16.95;74.10
14790;BME280;7486;51.010;10.366;2022-08-19T05:24:48;97828.53;;;17.13;73.75
14790;BME280;7486;51.010;10.366;2022-08-19T05:27:35;97816.25;;;17.17;73.11
14790;BME280;7486;51.010;10.366;2022-08-19T05:30:02;97828.28;;;17.15;72.84
14790;BME280;7486;51.010;10.366;2022-08-19T05:32:30;97852.25;;;17.00;73.62
14790;BME280;7486;51.010;10.366;2022-08-19T05:34:57;97803.19;;;16.89;72.84
14790;BME280;7486;51.010;10.366;2022-08-19T05:37:23;97870.72;;;17.38;72.08
14790;BME280;7486;51.010;10.366;2022-08-19T05:39:50;97855.00;;;17.10;72.06
14790;BME280;7486;51.010;10.366;2022-08-19T05:42:17;97836.28;;;17.10;71.54
14790;BME280;7486;51.010;10.366;2022-08-19T05:44:44;97798.66;;;16.58;70.78
14790;BME280;7486;51.010;10.366;2022-08-19T05:47:12;97815.91;;;16.40;72.29
14790;BME280;7486;51.010;10.366;2022-08-19T05:49:39;97871.53;;;16.75;72.13
14790;BME280;7486;51.010;10.366;2022-08-19T05:52:09;97852.28;;;16.73;71.10
14790;BME280;7486;51.010;10.366;2022-08-19T05:54:38;97840.78;;;16.72;71.29
14790;BME280;7486;51.010;10.366;2022-08-19T05:57:05;97853.53;;;16.92;70.92
14790;BME280;7486;51.010;10.366;2022-08-19T05:59:31;97899.72;;;17.46;70.43
14790;BME280;7486;51.010;10.366;2022-08-19T06:01:59;97808.41;;;17.01;69.64
14790;BME280;7486;51.010;10.366;2022-08-19T06:04:26;97843.84;;;17.18;69.94
14790;BME280;7486;51.010;10.366;2022-08-19T06:06:53;97895.78;;;17.64;69.54
14790;BME280;7486;51.010;10.366;2022-08-19T06:09:21;97910.09;;;17.80;68.43
14790;BME280;7486;51.010;10.366;2022-08-19T06:11:54;97853.56;;;17.29;68.97
14790;BME280;7486;51.010;10.366;2022-08-19T06:14:26;97847.91;;;17.31;69.16
14790;BME280;7486;51.010;10.366;2022-08-19T06:16:53;97890.28;;;17.39;69.23
14790;BME280;7486;51.010;10.366;2022-08-19T06:19:22;97908.88;;;17.60;68.80
14790;BME280;7486;51.010;10.366;2022-08-19T06:21:52;97920.63;;;17.17;70.67
14790;BME280;7486;51.010;10.366;2022-08-19T06:24:22;97800.56;;;16.57;70.97
14790;BME280;7486;51.010;10.366;2022-08-19T06:26:51;97883.03;;;17.02;70.79
14790;BME280;7486;51.010;10.366;2022-08-19T06:29:24;97851.94;;;16.91;70.62
14790;BME280;7486;51.010;10.366;2022-08-19T06:31:53;97931.84;;;17.46;70.19
14790;BME280;7486;51.010;10.366;2022-08-19T06:34:20;97886.25;;;17.36;69.54
14790;BME280;7486;51.010;10.366;2022-08-19T06:36:49;97935.06;;;17.48;68.49
14790;BME280;7486;51.010;10.366;2022-08-19T06:39:25;97892.22;;;17.11;69.57
14790;BME280;7486;51.010;10.366;2022-08-19T06:41:55;97861.22;;;16.89;68.89
14790;BME280;7486;51.010;10.366;2022-08-19T06:44:30;97868.13;;;16.80;69.00
14790;BME280;7486;51.010;10.366;2022-08-19T06:46:57;97931.41;;;16.96;69.43
14790;BME280;7486;51.010;10.366;2022-08-19T06:49:24;97860.56;;;16.18;69.28
14790;BME280;7486;51.010;10.366;2022-08-19T06:51:51;97848.19;;;16.12;68.60
14790;BME280;7486;51.010;10.366;2022-08-19T06:54:18;97847.56;;;16.27;68.19
14790;BME280;7486;51.010;10.366;2022-08-19T06:56:46;97962.94;;;17.20;67.87
14790;BME280;7486;51.010;10.366;2022-08-19T06:59:18;97898.69;;;16.89;67.42
14790;BME280;7486;51.010;10.366;2022-08-19T07:01:48;97849.94;;;16.82;66.88
14790;BME280;7486;51.010;10.366;2022-08-19T07:04:26;97931.94;;;17.24;65.48
14790;BME280;7486;51.010;10.366;2022-08-19T07:06:59;97886.50;;;16.98;66.79
14790;BME280;7486;51.010;10.366;2022-08-19T07:09:45;97910.38;;;17.09;65.03
14790;BME280;7486;51.010;10.366;2022-08-19T07:12:27;97966.88;;;17.45;66.25
14790;BME280;7486;51.010;10.366;2022-08-19T07:14:56;97929.69;;;17.48;65.62
14790;BME280;7486;51.010;10.366;2022-08-19T07:17:23;97907.34;;;17.28;64.59
14790;BME280;7486;51.010;10.366;2022-08-19T07:19:50;97976.13;;;17.64;64.77
14790;BME280;7486;51.010;10.366;2022-08-19T07:22:21;97930.50;;;17.49;62.42
14790;BME280;7486;51.010;10.366;2022-08-19T07:24:50;97949.22;;;17.81;62.78
14790;BME280;7486;51.010;10.366;2022-08-19T07:27:18;97934.84;;;17.55;61.11
14790;BME280;7486;51.010;10.366;2022-08-19T07:29:50;97921.53;;;17.28;62.00
14790;BME280;7486;51.010;10.366;2022-08-19T07:32:24;97944.16;;;17.47;60.17
14790;BME280;7486;51.010;10.366;2022-08-19T07:34:51;97957.59;;;17.52;60.73
14790;BME280;7486;51.010;10.366;2022-08-19T07:37:17;97967.66;;;17.40;60.88
14790;BME280;7486;51.010;10.366;2022-08-19T07:39:44;97940.94;;;17.50;60.08
14790;BME280;7486;51.010;10.366;2022-08-19T07:42:11;97936.75;;;17.64;59.44
14790;BME280;7486;51.010;10.366;2022-08-19T07:44:39;97914.22;;;17.60;57.86
14790;BME280;7486;51.010;10.366;2022-08-19T07:47:05;97964.34;;;18.02;58.44
14790;BME280;7486;51.010;10.366;2022-08-19T07:49:37;97932.97;;;17.60;57.41
14790;BME280;7486;51.010;10.366;2022-08-19T07:52:07;97984.94;;;17.96;56.54
14790;BME280;7486;51.010;10.366;2022-08-19T07:54:36;98006.03;;;18.30;55.64
14790;BME280;7486;51.010;10.366;2022-08-19T07:57:04;98004.00;;;18.05;55.89
14790;BME280;7486;51.010;10.366;2022-08-19T07:59:31;97990.25;;;17.86;57.71
14790;BME280;7486;51.010;10.366;2022-08-19T08:01:58;97922.94;;;17.72;56.97
14790;BME280;7486;51.010;10.366;2022-08-19T08:04:26;98010.47;;;18.56;56.83
14790;BME280;7486;51.010;10.366;2022-08-19T08:06:53;97944.47;;;17.88;56.21
14790;BME280;7486;51.010;10.366;2022-08-19T08:09:32;98012.72;;;18.27;56.57
14790;BME280;7486;51.010;10.366;2022-08-19T08:12:04;98022.22;;;17.98;56.90
14790;BME280;7486;51.010;10.366;2022-08-19T08:14:53;97998.13;;;18.03;56.99
14790;BME280;7486;51.010;10.366;2022-08-19T08:17:25;98018.22;;;18.05;57.17
14790;BME280;7486;51.010;10.366;2022-08-19T08:20:12;97967.19;;;17.48;58.49
14790;BME280;7486;51.010;10.366;2022-08-19T08:22:46;98004.81;;;18.05;57.91
14790;BME280;7486;51.010;10.366;2022-08-19T08:25:17;97980.63;;;17.90;58.08
14790;BME280;7486;51.010;10.366;2022-08-19T08:27:46;97971.34;;;18.08;58.16
14790;BME280;7486;51.010;10.366;2022-08-19T08:30:23;98011.91;;;18.21;57.78
14790;BME280;7486;51.010;10.366;2022-08-19T08:32:51;98030.56;;;18.48;58.15
14790;BME280;7486;51.010;10.366;2022-08-19T08:35:20;98027.75;;;18.33;58.07
14790;BME280;7486;51.010;10.366;2022-08-19T08:37:48;98035.50;;;18.24;58.49
14790;BME280;7486;51.010;10.366;2022-08-19T08:46:18;98036.69;;;17.97;59.25
14790;BME280;7486;51.010;10.366;2022-08-19T08:49:02;98043.31;;;18.36;59.75
14790;BME280;7486;51.010;10.366;2022-08-19T08:51:36;97990.16;;;18.18;58.55
14790;BME280;7486;51.010;10.366;2022-08-19T08:54:05;98036.91;;;18.32;58.20
14790;BME280;7486;51.010;10.366;2022-08-19T08:56:38;98001.72;;;17.77;59.24
14790;BME280;7486;51.010;10.366;2022-08-19T08:59:09;97999.75;;;18.09;58.80
14790;BME280;7486;51.010;10.366;2022-08-19T09:01:37;97992.63;;;17.51;60.06
14790;BME280;7486;51.010;10.366;2022-08-19T09:04:05;98021.22;;;17.72;59.68
14790;BME280;7486;51.010;10.366;2022-08-19T09:06:43;97995.59;;;17.86;60.46
14790;BME280;7486;51.010;10.366;2022-08-19T09:09:32;98002.84;;;17.54;61.50
14790;BME280;7486;51.010;10.366;2022-08-19T09:15:00;98048.09;;;18.24;59.96
14790;BME280;7486;51.010;10.366;2022-08-19T09:17:30;98039.66;;;18.47;58.99
14790;BME280;7486;51.010;10.366;2022-08-19T09:20:05;98011.25;;;18.51;58.66
14790;BME280;7486;51.010;10.366;2022-08-19T09:22:38;98053.16;;;18.67;58.09
14790;BME280;7486;51.010;10.366;2022-08-19T09:25:08;98055.59;;;18.69;57.81
14790;BME280;7486;51.010;10.366;2022-08-19T09:27:36;97995.06;;;18.36;58.49
14790;BME280;7486;51.010;10.366;2022-08-19T09:30:21;97996.72;;;17.90;58.69
14790;BME280;7486;51.010;10.366;2022-08-19T09:32:48;98013.53;;;18.28;58.86
14790;BME280;7486;51.010;10.366;2022-08-19T09:35:22;98050.50;;;18.78;59.76
14790;BME280;7486;51.010;10.366;2022-08-19T09:37:50;98006.66;;;18.42;59.29
14790;BME280;7486;51.010;10.366;2022-08-19T09:40:23;98014.28;;;18.75;57.83
14790;BME280;7486;51.010;10.366;2022-08-19T09:42:50;98028.81;;;18.94;56.54
14790;BME280;7486;51.010;10.366;2022-08-19T09:45:19;98043.88;;;18.90;57.67
14790;BME280;7486;51.010;10.366;2022-08-19T09:47:48;98002.94;;;18.53;58.61
14790;BME280;7486;51.010;10.366;2022-08-19T09:50:14;97938.63;;;18.06;58.26
14790;BME280;7486;51.010;10.366;2022-08-19T09:52:42;98031.72;;;18.72;57.67
14790;BME280;7486;51.010;10.366;2022-08-19T09:55:24;98012.47;;;19.01;57.14
14790;BME280;7486;51.010;10.366;2022-08-19T09:58:01;97981.25;;;18.64;57.37
14790;BME280;7486;51.010;10.366;2022-08-19T10:00:29;98039.72;;;18.57;57.93
14790;BME280;7486;51.010;10.366;2022-08-19T10:02:55;98012.91;;;18.67;57.75
14790;BME280;7486;51.010;10.366;2022-08-19T10:05:22;98042.88;;;19.32;56.62
14790;BME280;7486;51.010;10.366;2022-08-19T10:07:52;98037.50;;;19.16;56.20
14790;BME280;7486;51.010;10.366;2022-08-19T10:10:22;97977.03;;;18.89;57.47
14790;BME280;7486;51.010;10.366;2022-08-19T10:12:50;98011.09;;;18.78;55.92
14790;BME280;7486;51.010;10.366;2022-08-19T10:15:16;98006.56;;;18.89;56.36
14790;BME280;7486;51.010;10.366;2022-08-19T10:17:55;98036.09;;;18.94;54.13
14790;BME280;7486;51.010;10.366;2022-08-19T10:20:21;97975.34;;;18.57;54.87
14790;BME280;7486;51.010;10.366;2022-08-19T10:22:48;97989.25;;;18.02;55.89
14790;BME280;7486;51.010;10.366;2022-08-19T10:25:18;97999.59;;;18.31;57.28
14790;BME280;7486;51.010;10.366;2022-08-19T10:27:45;97997.00;;;18.41;55.29
14790;BME280;7486;51.010;10.366;2022-08-19T10:30:17;98015.13;;;18.91;55.76
14790;BME280;7486;51.010;10.366;2022-08-19T10:32:45;98029.72;;;19.25;55.06
14790;BME280;7486;51.010;10.366;2022-08-19T10:35:13;97992.66;;;19.22;54.47
14790;BME280;7486;51.010;10.366;2022-08-19T10:37:48;97971.22;;;19.27;54.38
14790;BME280;7486;51.010;10.366;2022-08-19T10:40:23;98015.47;;;19.14;53.74
14790;BME280;7486;51.010;10.366;2022-08-19T10:42:50;97989.72;;;19.29;53.37
14790;BME280;7486;51.010;10.366;2022-08-19T10:45:17;97984.09;;;19.30;52.62
14790;BME280;7486;51.010;10.366;2022-08-19T10:47:43;97987.53;;;19.00;53.33
14790;BME280;7486;51.010;10.366;2022-08-19T10:50:10;97952.78;;;18.53;54.34
14790;BME280;7486;51.010;10.366;2022-08-19T10:52:39;98030.16;;;18.92;54.47
14790;BME280;7486;51.010;10.366;2022-08-19T10:55:22;98005.50;;;18.90;53.81
14790;BME280;7486;51.010;10.366;2022-08-19T10:57:51;97975.09;;;18.74;53.90
14790;BME280;7486;51.010;10.366;2022-08-19T11:00:28;97981.81;;;18.71;54.32
14790;BME280;7486;51.010;10.366;2022-08-19T11:02:54;97985.88;;;18.94;53.78
14790;BME280;7486;51.010;10.366;2022-08-19T11:05:21;97965.22;;;18.95;53.49
14790;BME280;7486;51.010;10.366;2022-08-19T11:07:50;97966.31;;;19.09;53.24
14790;BME280;7486;51.010;10.366;2022-08-19T11:10:17;97935.72;;;19.10;53.63
14790;BME280;7486;51.010;10.366;2022-08-19T11:12:47;97999.94;;;19.57;52.76
14790;BME280;7486;51.010;10.366;2022-08-19T11:15:14;97977.38;;;19.22;53.71
14790;BME280;7486;51.010;10.366;2022-08-19T11:17:41;97978.94;;;19.03;54.96
14790;BME280;7486;51.010;10.366;2022-08-19T11:20:09;97963.13;;;19.52;53.74
14790;BME280;7486;51.010;10.366;2022-08-19T11:22:36;97960.94;;;20.00;51.44
14790;BME280;7486;51.010;10.366;2022-08-19T11:25:08;97960.41;;;20.03;50.42
14790;BME280;7486;51.010;10.366;2022-08-19T11:27:42;97977.34;;;20.03;51.65
14790;BME280;7486;51.010;10.366;2022-08-19T11:30:10;98021.97;;;19.99;52.53
14790;BME280;7486;51.010;10.366;2022-08-19T11:32:40;97949.69;;;19.57;52.31
14790;BME280;7486;51.010;10.366;2022-08-19T11:35:12;97978.72;;;19.76;51.87
14790;BME280;7486;51.010;10.366;2022-08-19T11:37:39;97974.34;;;20.15;52.58
14790;BME280;7486;51.010;10.366;2022-08-19T11:40:06;98001.63;;;20.62;49.43
14790;BME280;7486;51.010;10.366;2022-08-19T11:42:33;97958.66;;;20.32;50.12
14790;BME280;7486;51.010;10.366;2022-08-19T11:45:00;98017.88;;;20.22;52.08
14790;BME280;7486;51.010;10.366;2022-08-19T11:47:26;97969.53;;;20.07;50.49
14790;BME280;7486;51.010;10.366;2022-08-19T11:49:53;97940.53;;;19.73;51.62
14790;BME280;7486;51.010;10.366;2022-08-19T11:52:20;97952.47;;;20.32;50.16
14790;BME280;7486;51.010;10.366;2022-08-19T11:54:47;97949.69;;;20.62;49.67
14790;BME280;7486;51.010;10.366;2022-08-19T11:57:13;97948.28;;;20.05;50.47
14790;BME280;7486;51.010;10.366;2022-08-19T11:59:40;97983.38;;;20.54;51.38
14790;BME280;7486;51.010;10.366;2022-08-19T12:02:07;97968.75;;;20.70;49.45
14790;BME280;7486;51.010;10.366;2022-08-19T12:04:34;97922.59;;;20.43;49.18
14790;BME280;7486;51.010;10.366;2022-08-19T12:07:01;97966.34;;;21.13;48.60
14790;BME280;7486;51.010;10.366;2022-08-19T12:09:27;97952.06;;;21.12;48.76
14790;BME280;7486;51.010;10.366;2022-08-19T12:11:56;97954.28;;;21.39;48.34
14790;BME280;7486;51.010;10.366;2022-08-19T12:14:23;97948.59;;;21.41;49.04
14790;BME280;7486;51.010;10.366;2022-08-19T12:16:49;97918.22;;;21.35;47.63
14790;BME280;7486;51.010;10.366;2022-08-19T12:19:18;97952.50;;;21.58;47.30
14790;BME280;7486;51.010;10.366;2022-08-19T12:21:48;97968.53;;;22.02;46.39
14790;BME280;7486;51.010;10.366;2022-08-19T12:24:15;97899.94;;;21.32;47.26
14790;BME280;7486;51.010;10.366;2022-08-19T12:26:42;97953.66;;;21.81;46.98
14790;BME280;7486;51.010;10.366;2022-08-19T12:29:20;97854.22;;;21.51;46.27
14790;BME280;7486;51.010;10.366;2022-08-19T12:31:49;97924.72;;;22.15;45.64
14790;BME280;7486;51.010;10.366;2022-08-19T12:34:16;97910.91;;;22.17;46.68
14790;BME280;7486;51.010;10.366;2022-08-19T12:36:43;97874.13;;;22.02;44.77
14790;BME280;7486;51.010;10.366;2022-08-19T12:39:09;97891.63;;;22.29;45.91
14790;BME280;7486;51.010;10.366;2022-08-19T12:41:38;97870.00;;;22.52;47.71
14790;BME280;7486;51.010;10.366;2022-08-19T12:44:19;97875.22;;;22.81;45.73
14790;BME280;7486;51.010;10.366;2022-08-19T12:46:54;97875.66;;;22.88;44.97
14790;BME280;7486;51.010;10.366;2022-08-19T12:49:21;97899.84;;;23.31;45.98
14790;BME280;7486;51.010;10.366;2022-08-19T12:52:08;97875.81;;;23.75;45.29
14790;BME280;7486;51.010;10.366;2022-08-19T12:54:36;97932.53;;;24.21;44.76
14790;BME280;7486;51.010;10.366;2022-08-19T12:57:07;97927.94;;;24.35;44.86
14790;BME280;7486;51.010;10.366;2022-08-19T12:59:35;97844.06;;;23.81;42.82
14790;BME280;7486;51.010;10.366;2022-08-19T13:02:04;97774.56;;;23.67;43.69
14790;BME280;7486;51.010;10.366;2022-08-19T13:04:31;97850.72;;;24.51;43.23
14790;BME280;7486;51.010;10.366;2022-08-19T13:06:58;97897.13;;;24.58;40.58
14790;BME280;7486;51.010;10.366;2022-08-19T13:09:25;97845.63;;;23.54;42.19
14790;BME280;7486;51.010;10.366;2022-08-19T13:11:51;97874.00;;;23.84;42.31
14790;BME280;7486;51.010;10.366;2022-08-19T13:14:18;97592.56;;;22.22;43.33
14790;BME280;7486;51.010;10.366;2022-08-19T13:16:44;97873.59;;;24.32;42.71
14790;BME280;7486;51.010;10.366;2022-08-19T13:19:11;97899.75;;;24.36;41.92
14790;BME280;7486;51.010;10.366;2022-08-19T13:21:38;97915.38;;;24.39;40.30
14790;BME280;7486;51.010;10.366;2022-08-19T13:24:08;97787.84;;;22.58;42.06